sensor_id;sensor_type;location;lat;lon;timestamp;temperature;humidity
45489;DHT22;31236;55.026;61.042;2023-07-13T00:01:36;17.20;90.80
45489;DHT22;31236;55.026;61.042;2023-07-13T00:04:06;17.20;90.70
45489;DHT22;31236;55.026;61.042;2023-07-13T00:06:36;17.20;90.50
45489;DHT22;31236;55.026;61.042;2023-07-13T00:09:05;17.20;90.30
45489;DHT22;31236;55.026;61.042;2023-07-13T00:11:37;17.20;90.10
45489;DHT22;31236;55.026;61.042;2023-07-13T00:14:07;17.20;90.10
45489;DHT22;31236;55.026;61.042;2023-07-13T00:16:39;17.10;90.20
45489;DHT22;31236;55.026;61.042;2023-07-13T00:19:11;17.10;90.40
45489;DHT22;31236;55.026;61.042;2023-07-13T00:21:42;17.10;90.50
45489;DHT22;31236;55.026;61.042;2023-07-13T00:24:13;17.00;90.50
45489;DHT22;31236;55.026;61.042;2023-07-13T00:26:45;17.00;90.60
45489;DHT22;31236;55.026;61.042;2023-07-13T00:29:15;17.10;90.70
45489;DHT22;31236;55.026;61.042;2023-07-13T00:31:45;17.10;90.70
45489;DHT22;31236;55.026;61.042;2023-07-13T00:34:14;17.10;90.70
45489;DHT22;31236;55.026;61.042;2023-07-13T00:36:44;17.10;90.70
45489;DHT22;31236;55.026;61.042;2023-07-13T00:39:14;17.10;90.60
45489;DHT22;31236;55.026;61.042;2023-07-13T00:41:44;17.20;90.60
45489;DHT22;31236;55.026;61.042;2023-07-13T00:44:15;17.20;90.60
45489;DHT22;31236;55.026;61.042;2023-07-13T00:46:46;17.20;90.50
45489;DHT22;31236;55.026;61.042;2023-07-13T00:49:18;17.20;90.40
45489;DHT22;31236;55.026;61.042;2023-07-13T00:52:08;17.30;90.40
45489;DHT22;31236;55.026;61.042;2023-07-13T00:54:40;17.30;90.40
45489;DHT22;31236;55.026;61.042;2023-07-13T00:57:13;17.30;90.40
45489;DHT22;31236;55.026;61.042;2023-07-13T00:59:46;17.30;90.30
45489;DHT22;31236;55.026;61.042;2023-07-13T01:02:16;17.30;90.20
45489;DHT22;31236;55.026;61.042;2023-07-13T01:04:46;17.30;90.20
45489;DHT22;31236;55.026;61.042;2023-07-13T01:07:16;17.30;90.10
45489;DHT22;31236;55.026;61.042;2023-07-13T01:09:47;17.30;90.10
45489;DHT22;31236;55.026;61.042;2023-07-13T01:12:17;17.30;90.20
45489;DHT22;31236;55.026;61.042;2023-07-13T01:14:47;17.30;90.10
45489;DHT22;31236;55.026;61.042;2023-07-13T01:17:17;17.30;90.10
45489;DHT22;31236;55.026;61.042;2023-07-13T01:19:47;17.40;90.00
45489;DHT22;31236;55.026;61.042;2023-07-13T01:22:18;17.40;88.80
45489;DHT22;31236;55.026;61.042;2023-07-13T01:24:50;17.40;88.50
45489;DHT22;31236;55.026;61.042;2023-07-13T01:27:39;17.50;88.80
45489;DHT22;31236;55.026;61.042;2023-07-13T01:30:10;17.40;88.30
45489;DHT22;31236;55.026;61.042;2023-07-13T01:32:39;17.50;88.00
45489;DHT22;31236;55.026;61.042;2023-07-13T01:35:09;17.50;87.60
45489;DHT22;31236;55.026;61.042;2023-07-13T01:37:39;17.50;87.30
45489;DHT22;31236;55.026;61.042;2023-07-13T01:40:10;17.60;87.40
45489;DHT22;31236;55.026;61.042;2023-07-13T01:42:40;17.60;86.20
45489;DHT22;31236;55.026;61.042;2023-07-13T01:45:11;17.60;85.10
45489;DHT22;31236;55.026;61.042;2023-07-13T01:47:41;17.70;85.40
45489;DHT22;31236;55.026;61.042;2023-07-13T01:50:11;17.70;84.60
45489;DHT22;31236;55.026;61.042;2023-07-13T01:52:41;17.70;84.10
45489;DHT22;31236;55.026;61.042;2023-07-13T01:55:11;17.70;83.10
45489;DHT22;31236;55.026;61.042;2023-07-13T01:57:41;17.70;82.70
45489;DHT22;31236;55.026;61.042;2023-07-13T02:00:12;17.70;82.20
45489;DHT22;31236;55.026;61.042;2023-07-13T02:02:42;17.70;82.30
45489;DHT22;31236;55.026;61.042;2023-07-13T02:05:12;17.80;82.20
45489;DHT22;31236;55.026;61.042;2023-07-13T02:07:42;17.80;81.30
45489;DHT22;31236;55.026;61.042;2023-07-13T02:10:13;17.90;81.50
45489;DHT22;31236;55.026;61.042;2023-07-13T02:12:43;18.00;80.50
45489;DHT22;31236;55.026;61.042;2023-07-13T02:15:12;18.00;79.30
45489;DHT22;31236;55.026;61.042;2023-07-13T02:17:42;18.10;78.90
45489;DHT22;31236;55.026;61.042;2023-07-13T02:20:12;18.10;77.70
45489;DHT22;31236;55.026;61.042;2023-07-13T02:22:42;18.10;77.60
45489;DHT22;31236;55.026;61.042;2023-07-13T02:25:11;18.10;77.60
45489;DHT22;31236;55.026;61.042;2023-07-13T02:27:41;18.20;76.10
45489;DHT22;31236;55.026;61.042;2023-07-13T02:30:11;18.10;75.80
45489;DHT22;31236;55.026;61.042;2023-07-13T02:32:41;18.10;75.70
45489;DHT22;31236;55.026;61.042;2023-07-13T02:35:11;18.20;74.30
45489;DHT22;31236;55.026;61.042;2023-07-13T02:37:41;18.30;74.20
45489;DHT22;31236;55.026;61.042;2023-07-13T02:40:11;18.30;74.30
45489;DHT22;31236;55.026;61.042;2023-07-13T02:42:41;18.40;73.60
45489;DHT22;31236;55.026;61.042;2023-07-13T02:45:11;18.50;73.00
45489;DHT22;31236;55.026;61.042;2023-07-13T02:47:42;18.50;73.10
45489;DHT22;31236;55.026;61.042;2023-07-13T02:50:12;18.60;72.60
45489;DHT22;31236;55.026;61.042;2023-07-13T02:52:41;18.50;71.50
45489;DHT22;31236;55.026;61.042;2023-07-13T02:55:11;18.50;70.90
45489;DHT22;31236;55.026;61.042;2023-07-13T02:57:41;18.50;70.30
45489;DHT22;31236;55.026;61.042;2023-07-13T03:00:12;18.50;71.20
45489;DHT22;31236;55.026;61.042;2023-07-13T03:02:43;18.50;71.90
45489;DHT22;31236;55.026;61.042;2023-07-13T03:05:13;18.60;70.60
45489;DHT22;31236;55.026;61.042;2023-07-13T03:07:43;18.70;69.70
45489;DHT22;31236;55.026;61.042;2023-07-13T03:10:14;18.70;69.30
45489;DHT22;31236;55.026;61.042;2023-07-13T03:12:44;18.80;66.70
45489;DHT22;31236;55.026;61.042;2023-07-13T03:15:14;18.80;66.00
45489;DHT22;31236;55.026;61.042;2023-07-13T03:17:44;18.70;65.10
45489;DHT22;31236;55.026;61.042;2023-07-13T03:20:14;18.70;65.20
45489;DHT22;31236;55.026;61.042;2023-07-13T03:22:44;18.70;65.20
45489;DHT22;31236;55.026;61.042;2023-07-13T03:25:14;18.70;65.70
45489;DHT22;31236;55.026;61.042;2023-07-13T03:27:44;18.80;65.80
45489;DHT22;31236;55.026;61.042;2023-07-13T03:30:14;18.90;64.20
45489;DHT22;31236;55.026;61.042;2023-07-13T03:32:44;18.90;63.70
45489;DHT22;31236;55.026;61.042;2023-07-13T03:35:13;18.80;63.50
45489;DHT22;31236;55.026;61.042;2023-07-13T03:37:45;18.90;64.20
45489;DHT22;31236;55.026;61.042;2023-07-13T03:40:15;19.00;63.90
45489;DHT22;31236;55.026;61.042;2023-07-13T03:42:45;19.00;64.40
45489;DHT22;31236;55.026;61.042;2023-07-13T03:45:14;19.10;63.90
45489;DHT22;31236;55.026;61.042;2023-07-13T03:47:44;19.20;63.10
45489;DHT22;31236;55.026;61.042;2023-07-13T03:50:14;19.20;61.90
45489;DHT22;31236;55.026;61.042;2023-07-13T03:52:44;19.30;62.10
45489;DHT22;31236;55.026;61.042;2023-07-13T03:55:14;19.30;61.70
45489;DHT22;31236;55.026;61.042;2023-07-13T03:57:44;19.40;60.80
45489;DHT22;31236;55.026;61.042;2023-07-13T04:00:15;19.50;60.50
45489;DHT22;31236;55.026;61.042;2023-07-13T04:02:45;19.60;60.40
45489;DHT22;31236;55.026;61.042;2023-07-13T04:05:16;19.60;59.50
45489;DHT22;31236;55.026;61.042;2023-07-13T04:07:46;19.60;59.40
45489;DHT22;31236;55.026;61.042;2023-07-13T04:10:15;19.70;58.60
45489;DHT22;31236;55.026;61.042;2023-07-13T04:12:45;19.60;59.70
45489;DHT22;31236;55.026;61.042;2023-07-13T04:15:15;19.70;60.30
45489;DHT22;31236;55.026;61.042;2023-07-13T04:17:45;19.70;58.80
45489;DHT22;31236;55.026;61.042;2023-07-13T04:20:15;19.80;58.80
45489;DHT22;31236;55.026;61.042;2023-07-13T04:22:46;19.80;58.50
45489;DHT22;31236;55.026;61.042;2023-07-13T04:25:16;19.80;57.90
45489;DHT22;31236;55.026;61.042;2023-07-13T04:27:47;19.90;59.40
45489;DHT22;31236;55.026;61.042;2023-07-13T04:30:17;20.00;58.90
45489;DHT22;31236;55.026;61.042;2023-07-13T04:32:46;20.00;58.70
45489;DHT22;31236;55.026;61.042;2023-07-13T04:35:16;20.10;57.90
45489;DHT22;31236;55.026;61.042;2023-07-13T04:37:49;20.10;56.80
45489;DHT22;31236;55.026;61.042;2023-07-13T04:40:20;20.20;57.60
45489;DHT22;31236;55.026;61.042;2023-07-13T04:42:49;20.30;58.30
45489;DHT22;31236;55.026;61.042;2023-07-13T04:45:19;20.40;57.20
45489;DHT22;31236;55.026;61.042;2023-07-13T04:47:51;20.50;56.90
45489;DHT22;31236;55.026;61.042;2023-07-13T04:50:20;20.50;57.10
45489;DHT22;31236;55.026;61.042;2023-07-13T04:52:51;20.60;56.60
45489;DHT22;31236;55.026;61.042;2023-07-13T04:55:21;20.50;55.90
45489;DHT22;31236;55.026;61.042;2023-07-13T04:57:51;20.40;56.90
45489;DHT22;31236;55.026;61.042;2023-07-13T05:00:21;20.50;57.30
45489;DHT22;31236;55.026;61.042;2023-07-13T05:02:51;20.50;57.40
45489;DHT22;31236;55.026;61.042;2023-07-13T05:05:20;20.50;56.20
45489;DHT22;31236;55.026;61.042;2023-07-13T05:07:52;20.60;56.10
45489;DHT22;31236;55.026;61.042;2023-07-13T05:10:23;20.70;55.90
45489;DHT22;31236;55.026;61.042;2023-07-13T05:12:53;20.90;55.80
45489;DHT22;31236;55.026;61.042;2023-07-13T05:15:23;21.10;54.60
45489;DHT22;31236;55.026;61.042;2023-07-13T05:17:53;21.30;54.30
45489;DHT22;31236;55.026;61.042;2023-07-13T05:20:23;21.30;53.40
45489;DHT22;31236;55.026;61.042;2023-07-13T05:22:52;21.40;53.10
45489;DHT22;31236;55.026;61.042;2023-07-13T05:25:22;21.30;52.10
45489;DHT22;31236;55.026;61.042;2023-07-13T05:27:52;21.30;53.40
45489;DHT22;31236;55.026;61.042;2023-07-13T05:30:21;21.30;53.60
45489;DHT22;31236;55.026;61.042;2023-07-13T05:32:51;21.50;54.20
45489;DHT22;31236;55.026;61.042;2023-07-13T05:35:21;21.70;54.60
45489;DHT22;31236;55.026;61.042;2023-07-13T05:37:50;21.90;53.30
45489;DHT22;31236;55.026;61.042;2023-07-13T05:40:20;21.90;52.10
45489;DHT22;31236;55.026;61.042;2023-07-13T05:42:50;21.90;52.30
45489;DHT22;31236;55.026;61.042;2023-07-13T05:45:22;21.70;51.50
45489;DHT22;31236;55.026;61.042;2023-07-13T05:47:53;21.60;52.90
45489;DHT22;31236;55.026;61.042;2023-07-13T05:50:23;21.60;53.40
45489;DHT22;31236;55.026;61.042;2023-07-13T05:52:52;21.70;54.00
45489;DHT22;31236;55.026;61.042;2023-07-13T05:55:23;21.90;52.00
45489;DHT22;31236;55.026;61.042;2023-07-13T05:57:53;21.90;50.10
45489;DHT22;31236;55.026;61.042;2023-07-13T06:00:25;22.10;51.80
45489;DHT22;31236;55.026;61.042;2023-07-13T06:02:56;22.20;51.10
45489;DHT22;31236;55.026;61.042;2023-07-13T06:05:26;22.30;51.00
45489;DHT22;31236;55.026;61.042;2023-07-13T06:07:56;22.40;49.90
45489;DHT22;31236;55.026;61.042;2023-07-13T06:10:26;22.40;50.90
45489;DHT22;31236;55.026;61.042;2023-07-13T06:12:55;22.50;52.80
45489;DHT22;31236;55.026;61.042;2023-07-13T06:15:25;22.60;52.00
45489;DHT22;31236;55.026;61.042;2023-07-13T06:17:55;22.80;50.00
45489;DHT22;31236;55.026;61.042;2023-07-13T06:20:24;22.70;50.90
45489;DHT22;31236;55.026;61.042;2023-07-13T06:22:54;22.70;49.30
45489;DHT22;31236;55.026;61.042;2023-07-13T06:25:24;22.80;49.50
45489;DHT22;31236;55.026;61.042;2023-07-13T06:27:54;22.90;49.50
45489;DHT22;31236;55.026;61.042;2023-07-13T06:30:23;23.00;49.10
45489;DHT22;31236;55.026;61.042;2023-07-13T06:32:55;23.10;50.20
45489;DHT22;31236;55.026;61.042;2023-07-13T06:35:24;23.20;50.90
45489;DHT22;31236;55.026;61.042;2023-07-13T06:37:54;23.30;51.00
45489;DHT22;31236;55.026;61.042;2023-07-13T06:40:24;23.30;49.30
45489;DHT22;31236;55.026;61.042;2023-07-13T06:42:56;23.10;50.70
45489;DHT22;31236;55.026;61.042;2023-07-13T06:47:59;23.20;49.40
45489;DHT22;31236;55.026;61.042;2023-07-13T06:50:29;23.20;48.10
45489;DHT22;31236;55.026;61.042;2023-07-13T06:52:58;23.30;47.60
45489;DHT22;31236;55.026;61.042;2023-07-13T06:55:28;23.10;47.70
45489;DHT22;31236;55.026;61.042;2023-07-13T06:57:58;23.10;47.90
45489;DHT22;31236;55.026;61.042;2023-07-13T07:00:28;23.10;48.90
45489;DHT22;31236;55.026;61.042;2023-07-13T07:02:58;23.20;45.90
45489;DHT22;31236;55.026;61.042;2023-07-13T07:05:28;23.20;48.30
45489;DHT22;31236;55.026;61.042;2023-07-13T07:07:58;23.20;48.40
45489;DHT22;31236;55.026;61.042;2023-07-13T07:10:29;23.20;46.70
45489;DHT22;31236;55.026;61.042;2023-07-13T07:12:59;23.20;45.50
45489;DHT22;31236;55.026;61.042;2023-07-13T07:15:30;23.20;46.70
45489;DHT22;31236;55.026;61.042;2023-07-13T07:18:00;23.30;48.30
45489;DHT22;31236;55.026;61.042;2023-07-13T07:20:30;23.40;47.30
45489;DHT22;31236;55.026;61.042;2023-07-13T07:23:00;23.50;48.60
45489;DHT22;31236;55.026;61.042;2023-07-13T07:25:30;23.70;47.30
45489;DHT22;31236;55.026;61.042;2023-07-13T07:28:01;23.60;44.80
45489;DHT22;31236;55.026;61.042;2023-07-13T07:30:31;23.60;47.40
45489;DHT22;31236;55.026;61.042;2023-07-13T07:33:00;23.60;45.10
45489;DHT22;31236;55.026;61.042;2023-07-13T07:35:30;23.70;46.60
45489;DHT22;31236;55.026;61.042;2023-07-13T07:38:00;23.70;45.90
45489;DHT22;31236;55.026;61.042;2023-07-13T07:40:29;23.60;49.20
45489;DHT22;31236;55.026;61.042;2023-07-13T07:43:00;23.80;49.30
45489;DHT22;31236;55.026;61.042;2023-07-13T07:45:29;24.00;49.00
45489;DHT22;31236;55.026;61.042;2023-07-13T07:47:59;24.10;45.90
45489;DHT22;31236;55.026;61.042;2023-07-13T07:50:29;23.80;47.00
45489;DHT22;31236;55.026;61.042;2023-07-13T07:52:59;23.80;46.90
45489;DHT22;31236;55.026;61.042;2023-07-13T07:55:29;23.80;46.50
45489;DHT22;31236;55.026;61.042;2023-07-13T07:57:59;23.90;48.00
45489;DHT22;31236;55.026;61.042;2023-07-13T08:00:28;24.10;47.70
45489;DHT22;31236;55.026;61.042;2023-07-13T08:02:59;24.10;45.20
45489;DHT22;31236;55.026;61.042;2023-07-13T08:05:29;24.20;45.80
45489;DHT22;31236;55.026;61.042;2023-07-13T08:07:59;24.20;45.70
45489;DHT22;31236;55.026;61.042;2023-07-13T08:10:28;24.30;45.40
45489;DHT22;31236;55.026;61.042;2023-07-13T08:12:58;24.40;46.00
45489;DHT22;31236;55.026;61.042;2023-07-13T08:15:28;24.30;45.60
45489;DHT22;31236;55.026;61.042;2023-07-13T08:17:58;24.20;45.70
45489;DHT22;31236;55.026;61.042;2023-07-13T08:20:27;24.00;46.00
45489;DHT22;31236;55.026;61.042;2023-07-13T08:22:57;23.90;47.60
45489;DHT22;31236;55.026;61.042;2023-07-13T08:25:27;24.00;48.60
45489;DHT22;31236;55.026;61.042;2023-07-13T08:27:57;24.30;46.40
45489;DHT22;31236;55.026;61.042;2023-07-13T08:30:26;24.50;44.80
45489;DHT22;31236;55.026;61.042;2023-07-13T08:32:56;24.70;44.40
45489;DHT22;31236;55.026;61.042;2023-07-13T08:35:26;24.70;45.10
45489;DHT22;31236;55.026;61.042;2023-07-13T08:37:56;24.50;44.00
45489;DHT22;31236;55.026;61.042;2023-07-13T08:40:28;24.50;45.00
45489;DHT22;31236;55.026;61.042;2023-07-13T08:42:59;24.50;44.10
45489;DHT22;31236;55.026;61.042;2023-07-13T08:48:58;24.40;45.30
45489;DHT22;31236;55.026;61.042;2023-07-13T08:57:31;24.40;44.00
45489;DHT22;31236;55.026;61.042;2023-07-13T09:00:00;24.50;44.30
45489;DHT22;31236;55.026;61.042;2023-07-13T09:02:54;24.60;43.20
45489;DHT22;31236;55.026;61.042;2023-07-13T09:05:42;24.70;43.20
45489;DHT22;31236;55.026;61.042;2023-07-13T09:12:20;24.90;43.90
45489;DHT22;31236;55.026;61.042;2023-07-13T09:17:10;24.80;44.00
45489;DHT22;31236;55.026;61.042;2023-07-13T09:19:38;24.80;43.60
45489;DHT22;31236;55.026;61.042;2023-07-13T09:22:11;24.50;43.70
45489;DHT22;31236;55.026;61.042;2023-07-13T09:27:53;24.10;45.90
45489;DHT22;31236;55.026;61.042;2023-07-13T09:31:01;24.00;45.20
45489;DHT22;31236;55.026;61.042;2023-07-13T09:32:57;24.00;44.80
45489;DHT22;31236;55.026;61.042;2023-07-13T09:35:28;23.90;45.90
45489;DHT22;31236;55.026;61.042;2023-07-13T09:38:03;23.90;45.00
45489;DHT22;31236;55.026;61.042;2023-07-13T09:43:22;24.10;45.60
45489;DHT22;31236;55.026;61.042;2023-07-13T09:45:51;24.10;44.50
45489;DHT22;31236;55.026;61.042;2023-07-13T09:48:21;24.20;45.20
45489;DHT22;31236;55.026;61.042;2023-07-13T09:53:43;24.40;42.30
45489;DHT22;31236;55.026;61.042;2023-07-13T09:56:32;24.50;42.70
45489;DHT22;31236;55.026;61.042;2023-07-13T09:59:02;24.70;43.10
45489;DHT22;31236;55.026;61.042;2023-07-13T10:01:33;24.80;42.90
45489;DHT22;31236;55.026;61.042;2023-07-13T10:09:45;25.10;41.90
45489;DHT22;31236;55.026;61.042;2023-07-13T10:12:15;25.30;41.70
45489;DHT22;31236;55.026;61.042;2023-07-13T10:14:46;25.30;41.60
45489;DHT22;31236;55.026;61.042;2023-07-13T10:17:18;25.40;40.80
45489;DHT22;31236;55.026;61.042;2023-07-13T10:19:49;25.40;41.20
45489;DHT22;31236;55.026;61.042;2023-07-13T10:25:31;25.40;42.20
45489;DHT22;31236;55.026;61.042;2023-07-13T10:31:11;25.20;42.00
45489;DHT22;31236;55.026;61.042;2023-07-13T10:33:41;24.90;42.80
45489;DHT22;31236;55.026;61.042;2023-07-13T10:39:21;25.00;43.70
45489;DHT22;31236;55.026;61.042;2023-07-13T10:41:54;25.20;42.20
45489;DHT22;31236;55.026;61.042;2023-07-13T10:44:26;25.10;42.10
45489;DHT22;31236;55.026;61.042;2023-07-13T10:49:49;24.70;42.10
45489;DHT22;31236;55.026;61.042;2023-07-13T10:58:21;25.10;43.10
45489;DHT22;31236;55.026;61.042;2023-07-13T11:04:19;24.70;44.10
45489;DHT22;31236;55.026;61.042;2023-07-13T11:06:52;24.60;44.50
45489;DHT22;31236;55.026;61.042;2023-07-13T11:09:41;24.50;44.20
45489;DHT22;31236;55.026;61.042;2023-07-13T11:18:29;24.50;44.50
45489;DHT22;31236;55.026;61.042;2023-07-13T11:27:00;23.90;46.70
45489;DHT22;31236;55.026;61.042;2023-07-13T11:29:51;24.00;46.10
45489;DHT22;31236;55.026;61.042;2023-07-13T11:32:40;23.90;46.10
45489;DHT22;31236;55.026;61.042;2023-07-13T11:38:00;24.00;46.60
45489;DHT22;31236;55.026;61.042;2023-07-13T11:40:30;24.20;47.40
45489;DHT22;31236;55.026;61.042;2023-07-13T11:43:02;24.20;45.20
45489;DHT22;31236;55.026;61.042;2023-07-13T11:45:34;24.10;45.80
45489;DHT22;31236;55.026;61.042;2023-07-13T11:48:05;24.10;46.20
45489;DHT22;31236;55.026;61.042;2023-07-13T11:50:34;24.20;46.80
45489;DHT22;31236;55.026;61.042;2023-07-13T11:53:04;24.30;47.50
45489;DHT22;31236;55.026;61.042;2023-07-13T11:55:37;24.40;47.80
45489;DHT22;31236;55.026;61.042;2023-07-13T11:58:08;24.40;46.00
45489;DHT22;31236;55.026;61.042;2023-07-13T12:00:41;24.50;45.50
45489;DHT22;31236;55.026;61.042;2023-07-13T12:03:12;24.50;46.00
45489;DHT22;31236;55.026;61.042;2023-07-13T12:05:54;24.40;45.50
45489;DHT22;31236;55.026;61.042;2023-07-13T12:08:17;24.20;47.40
45489;DHT22;31236;55.026;61.042;2023-07-13T12:10:46;24.10;46.20
45489;DHT22;31236;55.026;61.042;2023-07-13T12:13:16;24.10;46.50
45489;DHT22;31236;55.026;61.042;2023-07-13T12:15:46;24.00;46.70
45489;DHT22;31236;55.026;61.042;2023-07-13T12:18:37;23.90;47.20
45489;DHT22;31236;55.026;61.042;2023-07-13T12:21:09;23.80;47.90
45489;DHT22;31236;55.026;61.042;2023-07-13T12:23:43;23.90;47.30
45489;DHT22;31236;55.026;61.042;2023-07-13T12:26:12;23.90;47.50
45489;DHT22;31236;55.026;61.042;2023-07-13T12:29:01;24.10;47.30
45489;DHT22;31236;55.026;61.042;2023-07-13T12:31:51;24.30;46.60
45489;DHT22;31236;55.026;61.042;2023-07-13T12:34:24;24.40;45.50
45489;DHT22;31236;55.026;61.042;2023-07-13T12:36:58;24.30;45.40
45489;DHT22;31236;55.026;61.042;2023-07-13T12:39:47;24.20;45.00
45489;DHT22;31236;55.026;61.042;2023-07-13T12:45:28;24.20;44.70
45489;DHT22;31236;55.026;61.042;2023-07-13T12:50:49;24.50;45.10
45489;DHT22;31236;55.026;61.042;2023-07-13T12:54:16;24.60;44.90
45489;DHT22;31236;55.026;61.042;2023-07-13T12:56:15;24.60;43.50
45489;DHT22;31236;55.026;61.042;2023-07-13T12:58:42;24.50;43.40
45489;DHT22;31236;55.026;61.042;2023-07-13T13:01:33;24.40;42.80
45489;DHT22;31236;55.026;61.042;2023-07-13T13:04:24;24.30;43.40
45489;DHT22;31236;55.026;61.042;2023-07-13T13:09:45;24.20;43.50
45489;DHT22;31236;55.026;61.042;2023-07-13T13:12:15;24.20;44.20
45489;DHT22;31236;55.026;61.042;2023-07-13T13:14:45;24.20;43.90
45489;DHT22;31236;55.026;61.042;2023-07-13T13:17:35;24.30;45.00
45489;DHT22;31236;55.026;61.042;2023-07-13T13:20:24;24.30;44.80
45489;DHT22;31236;55.026;61.042;2023-07-13T13:22:54;24.30;43.50
45489;DHT22;31236;55.026;61.042;2023-07-13T13:25:24;24.20;44.60
45489;DHT22;31236;55.026;61.042;2023-07-13T13:27:54;24.20;43.60
45489;DHT22;31236;55.026;61.042;2023-07-13T13:30:24;24.30;45.10
45489;DHT22;31236;55.026;61.042;2023-07-13T13:32:54;24.30;44.30
45489;DHT22;31236;55.026;61.042;2023-07-13T13:35:43;24.30;44.00
45489;DHT22;31236;55.026;61.042;2023-07-13T13:38:15;24.50;42.80
45489;DHT22;31236;55.026;61.042;2023-07-13T13:40:46;24.50;42.70
45489;DHT22;31236;55.026;61.042;2023-07-13T13:43:35;24.40;42.60
45489;DHT22;31236;55.026;61.042;2023-07-13T13:48:56;24.50;44.50
45489;DHT22;31236;55.026;61.042;2023-07-13T13:51:26;24.60;44.00
45489;DHT22;31236;55.026;61.042;2023-07-13T13:53:56;24.60;44.40
45489;DHT22;31236;55.026;61.042;2023-07-13T13:56:28;24.50;44.70
45489;DHT22;31236;55.026;61.042;2023-07-13T13:58:57;24.50;44.00
45489;DHT22;31236;55.026;61.042;2023-07-13T14:01:27;24.50;43.40
45489;DHT22;31236;55.026;61.042;2023-07-13T14:03:58;24.40;43.40
45489;DHT22;31236;55.026;61.042;2023-07-13T14:06:28;24.50;43.00
45489;DHT22;31236;55.026;61.042;2023-07-13T14:08:58;24.50;43.60
45489;DHT22;31236;55.026;61.042;2023-07-13T14:11:31;24.50;44.40
45489;DHT22;31236;55.026;61.042;2023-07-13T14:14:01;24.40;43.90
45489;DHT22;31236;55.026;61.042;2023-07-13T14:16:32;24.40;43.70
45489;DHT22;31236;55.026;61.042;2023-07-13T14:19:04;24.20;43.50
45489;DHT22;31236;55.026;61.042;2023-07-13T14:21:34;24.10;44.30
45489;DHT22;31236;55.026;61.042;2023-07-13T14:24:04;24.10;43.10
45489;DHT22;31236;55.026;61.042;2023-07-13T14:29:24;23.90;43.50
45489;DHT22;31236;55.026;61.042;2023-07-13T14:31:53;23.90;43.90
45489;DHT22;31236;55.026;61.042;2023-07-13T14:34:23;23.90;44.30
45489;DHT22;31236;55.026;61.042;2023-07-13T14:36:53;23.80;44.40
45489;DHT22;31236;55.026;61.042;2023-07-13T14:39:24;23.80;45.00
45489;DHT22;31236;55.026;61.042;2023-07-13T14:41:56;23.80;44.90
45489;DHT22;31236;55.026;61.042;2023-07-13T14:44:29;23.70;45.20
45489;DHT22;31236;55.026;61.042;2023-07-13T14:47:03;23.60;47.30
45489;DHT22;31236;55.026;61.042;2023-07-13T14:52:25;23.40;47.50
45489;DHT22;31236;55.026;61.042;2023-07-13T14:54:55;23.30;47.90
45489;DHT22;31236;55.026;61.042;2023-07-13T14:57:25;23.20;48.10
45489;DHT22;31236;55.026;61.042;2023-07-13T14:59:54;23.20;48.30
45489;DHT22;31236;55.026;61.042;2023-07-13T15:02:45;23.20;48.40
45489;DHT22;31236;55.026;61.042;2023-07-13T15:05:34;23.20;49.10
45489;DHT22;31236;55.026;61.042;2023-07-13T15:08:04;23.20;49.30
45489;DHT22;31236;55.026;61.042;2023-07-13T15:10:34;23.20;48.50
45489;DHT22;31236;55.026;61.042;2023-07-13T15:13:23;23.20;48.30
45489;DHT22;31236;55.026;61.042;2023-07-13T15:15:54;23.20;48.20
45489;DHT22;31236;55.026;61.042;2023-07-13T15:18:25;23.10;49.10
45489;DHT22;31236;55.026;61.042;2023-07-13T15:20:55;23.00;48.70
45489;DHT22;31236;55.026;61.042;2023-07-13T15:23:26;22.90;48.90
45489;DHT22;31236;55.026;61.042;2023-07-13T15:25:56;22.90;49.00
45489;DHT22;31236;55.026;61.042;2023-07-13T15:28:25;22.80;48.90
45489;DHT22;31236;55.026;61.042;2023-07-13T15:30:55;22.60;49.10
45489;DHT22;31236;55.026;61.042;2023-07-13T15:33:27;22.50;49.30
45489;DHT22;31236;55.026;61.042;2023-07-13T15:35:57;22.40;49.50
45489;DHT22;31236;55.026;61.042;2023-07-13T15:38:48;22.40;49.90
45489;DHT22;31236;55.026;61.042;2023-07-13T15:41:39;22.30;49.80
45489;DHT22;31236;55.026;61.042;2023-07-13T15:44:29;22.20;50.10
45489;DHT22;31236;55.026;61.042;2023-07-13T15:47:00;22.00;50.60
45489;DHT22;31236;55.026;61.042;2023-07-13T15:49:30;21.90;51.10
45489;DHT22;31236;55.026;61.042;2023-07-13T15:52:01;21.90;51.50
45489;DHT22;31236;55.026;61.042;2023-07-13T15:54:31;21.80;51.90
45489;DHT22;31236;55.026;61.042;2023-07-13T15:57:01;21.80;53.10
45489;DHT22;31236;55.026;61.042;2023-07-13T15:59:33;21.70;53.10
45489;DHT22;31236;55.026;61.042;2023-07-13T16:02:11;21.70;53.20
45489;DHT22;31236;55.026;61.042;2023-07-13T16:04:35;21.70;53.60
45489;DHT22;31236;55.026;61.042;2023-07-13T16:07:04;21.60;54.90
45489;DHT22;31236;55.026;61.042;2023-07-13T16:09:34;21.60;56.20
45489;DHT22;31236;55.026;61.042;2023-07-13T16:14:54;21.60;56.30
45489;DHT22;31236;55.026;61.042;2023-07-13T16:17:24;21.50;56.30
45489;DHT22;31236;55.026;61.042;2023-07-13T16:19:55;21.40;57.00
45489;DHT22;31236;55.026;61.042;2023-07-13T16:22:26;21.40;57.40
45489;DHT22;31236;55.026;61.042;2023-07-13T16:24:56;21.30;57.30
45489;DHT22;31236;55.026;61.042;2023-07-13T16:27:27;21.20;55.90
45489;DHT22;31236;55.026;61.042;2023-07-13T16:29:56;20.90;55.60
45489;DHT22;31236;55.026;61.042;2023-07-13T16:32:26;20.80;56.20
45489;DHT22;31236;55.026;61.042;2023-07-13T16:34:56;20.70;56.10
45489;DHT22;31236;55.026;61.042;2023-07-13T16:37:28;20.70;57.50
45489;DHT22;31236;55.026;61.042;2023-07-13T16:39:59;20.80;57.90
45489;DHT22;31236;55.026;61.042;2023-07-13T16:42:31;20.80;58.10
45489;DHT22;31236;55.026;61.042;2023-07-13T16:45:01;20.70;58.30
45489;DHT22;31236;55.026;61.042;2023-07-13T16:47:31;20.70;58.40
45489;DHT22;31236;55.026;61.042;2023-07-13T16:50:00;20.60;58.80
45489;DHT22;31236;55.026;61.042;2023-07-13T16:52:31;20.60;59.00
45489;DHT22;31236;55.026;61.042;2023-07-13T16:55:00;20.50;59.10
45489;DHT22;31236;55.026;61.042;2023-07-13T16:57:32;20.40;59.50
45489;DHT22;31236;55.026;61.042;2023-07-13T17:03:16;20.30;58.80
45489;DHT22;31236;55.026;61.042;2023-07-13T17:05:48;20.30;59.20
45489;DHT22;31236;55.026;61.042;2023-07-13T17:08:23;20.20;59.80
45489;DHT22;31236;55.026;61.042;2023-07-13T17:10:56;20.20;60.60
45489;DHT22;31236;55.026;61.042;2023-07-13T17:13:26;20.10;60.60
45489;DHT22;31236;55.026;61.042;2023-07-13T17:15:57;20.00;60.20